Time;durP1;ratioP1;P1;durP2;ratioP2;P2;SDS_P1;SDS_P2;PMS_P1;PMS_P2;Temp;Humidity;BMP_temperature;BMP_pressure;BME280_temperature;BME280_humidity;BME280_pressure;Samples;Min_cycle;Max_cycle;Signal;HPM_P1;HPM_P2
2021/01/01 00:00:14;;;;;;;56.65;30.20;;;;;;;-1.55;88.34;95847.20;1769449;80;21111;-87
2021/01/01 00:02:44;;;;;;;50.52;25.70;;;;;;;-1.45;88.44;95855.78;1769671;81;21487;-88
2021/01/01 00:05:15;;;;;;;52.48;28.75;;;;;;;-1.43;88.36;95853.23;1769471;81;21159;-88
2021/01/01 00:07:45;;;;;;;50.20;28.17;;;;;;;-1.56;88.17;95849.01;1769684;80;21099;-88
2021/01/01 00:10:13;;;;;;;50.57;27.50;;;;;;;-1.53;88.25;95851.70;1769915;80;21168;-87
2021/01/01 00:12:41;;;;;;;52.00;27.00;;;;;;;-1.48;88.29;95852.33;1769778;81;21467;-88
2021/01/01 00:15:10;;;;;;;53.55;29.27;;;;;;;-1.41;88.31;95848.61;1769680;81;21194;-88
2021/01/01 00:17:37;;;;;;;48.05;29.18;;;;;;;-1.48;88.26;95828.42;1769570;81;21498;-88
2021/01/01 00:20:07;;;;;;;50.58;28.87;;;;;;;-1.32;88.31;95853.79;1770029;79;21151;-88
2021/01/01 00:22:35;;;;;;;56.15;29.35;;;;;;;-1.33;88.32;95832.70;1769689;80;21486;-88
2021/01/01 00:25:07;;;;;;;48.45;26.52;;;;;;;-1.20;88.33;95849.42;1769474;81;21143;-87
2021/01/01 00:27:34;;;;;;;32.78;17.23;;;;;;;-1.14;88.25;95849.53;1769655;81;21119;-88
2021/01/01 00:30:01;;;;;;;56.37;32.23;;;;;;;-1.13;88.18;95850.61;1769545;81;21151;-87
2021/01/01 00:32:28;;;;;;;53.28;27.95;;;;;;;-1.28;87.89;95852.32;1769587;81;21104;-88
2021/01/01 00:34:56;;;;;;;55.33;31.15;;;;;;;-1.35;87.76;95851.64;1769565;81;21140;-88
2021/01/01 00:37:23;;;;;;;53.00;29.67;;;;;;;-1.42;87.73;95855.33;1769493;81;21575;-88
2021/01/01 00:39:50;;;;;;;59.67;30.23;;;;;;;-1.40;87.78;95846.83;1769668;81;21142;-88
2021/01/01 00:42:17;;;;;;;52.48;28.15;;;;;;;-1.42;87.78;95847.53;1769742;80;21135;-88
2021/01/01 00:44:44;;;;;;;49.35;24.82;;;;;;;-1.51;87.74;95849.67;1769762;81;21513;-88
2021/01/01 00:47:12;;;;;;;50.83;29.40;;;;;;;-1.51;87.75;95854.87;1769760;80;21151;-87
2021/01/01 00:49:39;;;;;;;53.95;31.05;;;;;;;-1.64;87.62;95844.64;1770241;79;21171;-88
2021/01/01 00:52:07;;;;;;;50.12;29.63;;;;;;;-1.72;87.64;95848.33;1769731;80;21104;-87
2021/01/01 00:54:34;;;;;;;53.68;31.20;;;;;;;-1.83;87.68;95844.69;1770026;81;21115;-88
2021/01/01 00:57:02;;;;;;;50.60;30.00;;;;;;;-1.83;87.68;95844.69;1804307;79;21151;-88
2021/01/01 00:59:29;;;;;;;54.60;30.23;;;;;;;-1.91;87.71;95846.77;1769819;81;21115;-88
2021/01/01 01:01:56;;;;;;;57.83;33.10;;;;;;;-2.00;87.78;95848.07;1769786;81;21150;-88
2021/01/01 01:04:23;;;;;;;62.88;34.15;;;;;;;-2.05;87.83;95850.03;1769779;80;21146;-87
2021/01/01 01:06:51;;;;;;;62.15;34.03;;;;;;;-2.05;87.94;95847.44;1769667;81;21131;-88
2021/01/01 01:09:18;;;;;;;53.52;32.80;;;;;;;-2.04;87.96;95849.53;1769657;80;21506;-88
2021/01/01 01:11:45;;;;;;;60.28;33.40;;;;;;;-2.02;88.01;95855.30;1769661;81;21491;-88
2021/01/01 01:14:14;;;;;;;52.60;30.60;;;;;;;-2.05;87.92;95853.14;1769740;80;21123;-87
2021/01/01 01:16:41;;;;;;;55.52;32.90;;;;;;;-2.08;87.88;95848.38;1769731;81;21171;-88
2021/01/01 01:19:08;;;;;;;54.58;31.23;;;;;;;-2.16;87.90;95852.05;1770305;79;21151;-87
2021/01/01 01:21:35;;;;;;;55.03;31.75;;;;;;;-2.21;87.94;95850.11;1769659;81;21130;-87
2021/01/01 01:24:05;;;;;;;54.65;32.95;;;;;;;-2.25;88.00;95850.73;1769740;80;21531;-87
2021/01/01 01:26:32;;;;;;;46.53;29.10;;;;;;;-2.31;88.18;95848.52;1769759;81;21111;-88
2021/01/01 01:28:58;;;;;;;53.70;29.82;;;;;;;-2.33;88.25;95849.23;1769826;81;21108;-87
2021/01/01 01:31:26;;;;;;;50.98;31.25;;;;;;;-2.36;88.34;95850.97;1769704;81;21151;-87
2021/01/01 01:33:53;;;;;;;60.65;32.00;;;;;;;-2.39;88.37;95854.00;1769700;81;21493;-87
2021/01/01 01:36:20;;;;;;;64.10;31.90;;;;;;;-2.40;88.39;95849.29;1769719;81;21501;-87
2021/01/01 01:38:47;;;;;;;130.30;45.78;;;;;;;-2.41;88.48;95847.70;1769713;80;21522;-87
2021/01/01 01:41:14;;;;;;;394.57;127.20;;;;;;;-2.40;88.47;95848.50;1769670;81;21136;-87
2021/01/01 01:43:41;;;;;;;97.20;44.77;;;;;;;-2.42;88.41;95850.02;1769967;81;21139;-87
2021/01/01 01:46:08;;;;;;;57.17;32.93;;;;;;;-2.43;88.31;95851.02;1769737;81;21163;-87
2021/01/01 01:48:39;;;;;;;59.53;32.40;;;;;;;-2.49;88.19;95851.89;1769834;81;21148;-87
2021/01/01 01:51:10;;;;;;;55.50;30.00;;;;;;;-2.60;88.14;95855.69;1770203;79;21148;-88
2021/01/01 01:53:43;;;;;;;52.45;31.70;;;;;;;-2.65;88.18;95856.34;1770188;81;21159;-88
2021/01/01 01:56:12;;;;;;;54.33;32.53;;;;;;;-2.66;88.11;95846.98;1770583;79;21104;-87
2021/01/01 01:58:46;;;;;;;50.90;29.02;;;;;;;-2.70;88.20;95858.26;1770488;80;21143;-87
2021/01/01 02:01:12;;;;;;;57.58;32.50;;;;;;;-2.63;88.20;95853.03;1770940;79;21104;-87
2021/01/01 02:03:39;;;;;;;53.20;30.23;;;;;;;-2.64;88.07;95860.52;1770480;81;21115;-87
2021/01/01 02:06:06;;;;;;;66.90;31.97;;;;;;;-2.65;87.97;95853.75;1770405;80;21136;-87
2021/01/01 02:08:33;;;;;;;61.58;31.12;;;;;;;-2.66;87.85;95857.35;1770482;80;21173;-87
2021/01/01 02:11:00;;;;;;;59.75;32.85;;;;;;;-2.69;87.78;95850.77;1770429;80;21154;-87
2021/01/01 02:13:27;;;;;;;50.60;28.83;;;;;;;-2.74;87.82;95855.81;1770478;80;21134;-87
2021/01/01 02:15:54;;;;;;;51.88;30.92;;;;;;;-2.77;87.91;95854.94;1770495;81;21261;-87
2021/01/01 02:18:40;;;;;;;61.23;33.55;;;;;;;-2.78;87.94;95855.16;1770395;80;21156;-87
2021/01/01 02:21:10;;;;;;;52.48;30.10;;;;;;;-2.79;88.02;95847.09;1770977;79;21506;-87
2021/01/01 02:23:37;;;;;;;55.37;30.63;;;;;;;-2.69;88.12;95846.87;1770674;80;21122;-87
2021/01/01 02:26:04;;;;;;;43.02;25.95;;;;;;;-2.63;88.09;95846.54;1770436;80;21967;-87
2021/01/01 02:28:31;;;;;;;44.08;23.73;;;;;;;-2.57;88.12;95841.78;1770466;80;21281;-87
2021/01/01 02:30:58;;;;;;;35.70;21.42;;;;;;;-2.55;87.97;95845.45;1770421;81;21143;-87
2021/01/01 02:33:26;;;;;;;38.05;21.40;;;;;;;-2.52;87.84;95843.75;1770416;81;21277;-87
2021/01/01 02:35:53;;;;;;;39.23;21.20;;;;;;;-2.56;87.71;95842.07;1770434;81;21142;-87
2021/01/01 02:38:20;;;;;;;40.10;21.30;;;;;;;-2.54;87.75;95843.14;1770340;81;21147;-87
2021/01/01 02:40:47;;;;;;;36.35;20.15;;;;;;;-2.53;87.67;95842.17;1770431;80;21107;-87
2021/01/01 02:43:14;;;;;;;43.33;22.10;;;;;;;-2.55;87.50;95844.95;1770409;80;21130;-87
2021/01/01 02:45:41;;;;;;;39.20;21.30;;;;;;;-2.54;87.49;95837.95;1770417;80;21282;-87
2021/01/01 02:48:21;;;;;;;45.95;24.35;;;;;;;-2.58;87.40;95836.30;1770463;80;21127;-87
2021/01/01 02:50:48;;;;;;;40.65;22.90;;;;;;;-2.59;87.29;95836.52;1771158;79;21265;-87
2021/01/01 02:53:15;;;;;;;34.05;19.57;;;;;;;-2.58;87.40;95837.60;1770402;80;21668;-87
2021/01/01 02:55:43;;;;;;;38.13;20.00;;;;;;;-2.55;87.44;95842.36;1770565;80;21629;-87
2021/01/01 02:58:10;;;;;;;39.35;19.70;;;;;;;-2.54;87.48;95840.55;1770412;80;21621;-87
2021/01/01 03:00:40;;;;;;;42.38;24.55;;;;;;;-2.55;87.40;95836.38;1808091;79;21144;-87
2021/01/01 03:03:07;;;;;;;;;;;;;;;-2.63;87.37;95837.97;1821992;79;21488;-87
2021/01/01 03:05:36;;;;;;;45.25;22.20;;;;;;;-2.66;87.59;95837.89;1819255;79;20371;-87
2021/01/01 03:08:04;;;;;;;43.65;22.93;;;;;;;-2.64;87.80;95836.38;1819159;79;21126;-87
2021/01/01 03:10:31;;;;;;;39.10;22.20;;;;;;;-2.64;87.88;95842.36;1819230;79;21128;-87
2021/01/01 03:12:58;;;;;;;37.23;22.15;;;;;;;-2.64;87.92;95846.76;1819192;79;21135;-87
2021/01/01 03:15:25;;;;;;;42.53;23.50;;;;;;;-2.64;87.81;95844.95;1819262;79;21131;-87
2021/01/01 03:17:52;;;;;;;44.40;23.40;;;;;;;-2.65;87.82;95838.19;1819166;79;21132;-87
2021/01/01 03:20:19;;;;;;;53.75;27.15;;;;;;;-2.64;88.12;95841.06;1790418;79;21301;-87
2021/01/01 03:22:46;;;;;;;42.98;24.25;;;;;;;-2.64;88.19;95839.77;1770332;80;21115;-87
2021/01/01 03:25:13;;;;;;;53.05;24.40;;;;;;;-2.64;88.27;95834.58;1770373;80;21167;-87
2021/01/01 03:27:40;;;;;;;36.48;20.72;;;;;;;-2.65;88.28;95838.19;1770377;80;21172;-87
2021/01/01 03:30:10;;;;;;;39.40;21.33;;;;;;;-2.72;88.05;95839.52;1770444;80;21297;-87
2021/01/01 03:32:38;;;;;;;39.30;20.90;;;;;;;-2.80;87.95;95842.41;1770699;80;21265;-87
2021/01/01 03:35:07;;;;;;;29.75;17.52;;;;;;;-2.81;87.96;95841.33;1770394;81;21138;-87
2021/01/01 03:37:36;;;;;;;35.70;19.40;;;;;;;-2.80;88.07;95841.11;1770407;80;21131;-87
2021/01/01 03:40:05;;;;;;;28.80;16.75;;;;;;;-2.88;87.91;95844.47;1770428;80;21273;-87
2021/01/01 03:42:32;;;;;;;32.93;17.62;;;;;;;-2.94;88.09;95847.92;1770589;80;21618;-87
2021/01/01 03:44:59;;;;;;;43.83;23.18;;;;;;;-2.91;88.29;95847.48;1757220;81;21486;-87
2021/01/01 03:47:26;;;;;;;42.25;23.85;;;;;;;-2.86;88.44;95847.63;1770416;80;21644;-87
2021/01/01 03:49:53;;;;;;;40.08;22.27;;;;;;;-2.82;88.53;95853.47;1770856;79;21144;-87
2021/01/01 03:52:20;;;;;;;45.25;26.37;;;;;;;-2.78;88.71;95853.86;1770594;81;21146;-87
2021/01/01 03:54:47;;;;;;;44.30;24.25;;;;;;;-2.82;88.75;95846.98;1769736;80;21167;-87
2021/01/01 03:57:14;;;;;;;46.33;24.35;;;;;;;-2.82;88.74;95850.09;1769564;81;21135;-87
2021/01/01 03:59:41;;;;;;;33.18;15.45;;;;;;;-2.78;88.77;95853.86;1769487;81;21168;-87
2021/01/01 04:02:08;;;;;;;28.02;15.00;;;;;;;-2.77;88.58;95857.54;1769557;81;21278;-87
2021/01/01 04:04:35;;;;;;;31.73;17.87;;;;;;;-2.77;88.46;95855.45;1769472;81;21104;-87
2021/01/01 04:07:02;;;;;;;33.70;17.30;;;;;;;-2.77;88.37;95852.86;1769640;80;21506;-87
2021/01/01 04:09:29;;;;;;;34.10;18.55;;;;;;;-2.75;88.25;95856.02;1769465;81;21277;-87
2021/01/01 04:11:56;;;;;;;36.00;18.85;;;;;;;-2.78;88.10;95852.06;1769565;81;21142;-87
2021/01/01 04:14:23;;;;;;;36.25;20.17;;;;;;;-2.81;87.95;95857.68;1769637;81;21107;-87
2021/01/01 04:16:49;;;;;;;40.17;20.85;;;;;;;-2.81;87.86;95856.89;1769754;81;21112;-87
2021/01/01 04:19:17;;;;;;;32.28;17.23;;;;;;;-2.82;87.88;95856.06;1770206;79;21585;-87
2021/01/01 04:21:49;;;;;;;28.90;16.82;;;;;;;-2.83;87.93;95854.98;1769754;81;21126;-87
2021/01/01 04:24:18;;;;;;;47.10;24.00;;;;;;;-2.89;88.01;95852.75;1769573;81;21434;-87
2021/01/01 04:26:47;;;;;;;41.88;22.10;;;;;;;-2.93;88.14;95859.88;1769806;81;21502;-87
2021/01/01 04:29:14;;;;;;;34.95;18.87;;;;;;;-2.90;88.16;95865.42;1769182;81;21576;-87
2021/01/01 04:31:41;;;;;;;46.88;26.15;;;;;;;-2.91;88.41;95865.14;1769831;81;21138;-87
2021/01/01 04:34:09;;;;;;;48.25;28.77;;;;;;;-2.89;88.40;95865.72;1769669;81;21147;-87
2021/01/01 04:36:37;;;;;;;46.77;27.27;;;;;;;-2.93;88.38;95864.56;1769733;81;21146;-87
2021/01/01 04:39:06;;;;;;;35.38;19.55;;;;;;;-2.93;88.38;95863.77;1769700;80;21159;-87
2021/01/01 04:41:36;;;;;;;38.48;20.72;;;;;;;-2.95;88.23;95865.78;1769944;81;21511;-87
2021/01/01 04:44:06;;;;;;;38.58;21.57;;;;;;;-3.02;88.06;95868.41;1769685;81;21134;-87
2021/01/01 04:46:39;;;;;;;34.83;19.15;;;;;;;-3.02;88.04;95866.61;1769724;81;21120;-87
2021/01/01 04:49:07;;;;;;;32.03;17.87;;;;;;;-3.02;87.95;95869.20;1770084;79;21150;-87
2021/01/01 04:51:35;;;;;;;33.05;18.73;;;;;;;-3.09;87.75;95874.95;1769806;81;21506;-87
2021/01/01 04:54:04;;;;;;;36.50;19.80;;;;;;;-3.12;87.56;95875.34;1769999;81;21167;-87
2021/01/01 04:56:31;;;;;;;32.42;17.87;;;;;;;-3.15;87.40;95871.88;1770640;80;21249;-87
2021/01/01 04:59:00;;;;;;;31.65;17.02;;;;;;;-3.17;87.31;95868.72;1770470;80;21281;-87
2021/01/01 05:01:26;;;;;;;37.15;19.37;;;;;;;-3.23;87.10;95881.23;1757383;81;21166;-87
2021/01/01 05:03:53;;;;;;;41.85;21.80;;;;;;;-3.31;86.99;95878.37;1770439;81;21142;-87
2021/01/01 05:06:29;;;;;;;37.93;20.37;;;;;;;-3.32;86.99;95879.88;1770495;80;21547;-87
2021/01/01 05:08:56;;;;;;;31.27;19.05;;;;;;;-3.37;86.94;95879.22;1770532;80;21550;-87
2021/01/01 05:11:23;;;;;;;39.90;21.23;;;;;;;-3.39;86.95;95878.61;1770480;80;21270;-88
2021/01/01 05:14:05;;;;;;;41.13;23.10;;;;;;;-3.53;86.62;95884.07;1770475;80;21134;-88
2021/01/01 05:16:33;;;;;;;49.73;26.20;;;;;;;-3.62;86.49;95880.44;1770606;80;21630;-88
2021/01/01 05:19:13;;;;;;;42.83;25.23;;;;;;;-3.61;86.61;95887.21;1770869;79;21281;-88
2021/01/01 05:21:40;;;;;;;45.03;21.68;;;;;;;-3.64;86.62;95890.22;1770954;81;21265;-87
2021/01/01 05:24:12;;;;;;;57.60;26.65;;;;;;;-3.64;86.58;95889.42;1770427;81;21269;-87
2021/01/01 05:26:44;;;;;;;52.25;27.50;;;;;;;-3.79;86.57;95890.20;1770599;80;21242;-87
2021/01/01 05:29:17;;;;;;;49.98;27.10;;;;;;;-3.81;86.65;95889.08;1770411;80;21285;-87
2021/01/01 05:31:45;;;;;;;49.93;26.25;;;;;;;-3.83;86.67;95894.97;1770283;80;21274;-87
2021/01/01 05:34:14;;;;;;;53.75;25.72;;;;;;;-3.86;86.80;95900.56;1770529;81;21507;-87
2021/01/01 05:36:44;;;;;;;58.78;30.35;;;;;;;-3.95;86.76;95901.28;1770490;80;21178;-87
2021/01/01 05:39:21;;;;;;;53.68;28.35;;;;;;;-4.02;86.73;95901.02;1770577;81;21330;-87
2021/01/01 05:41:52;;;;;;;56.88;28.73;;;;;;;-4.04;86.82;95901.73;1770547;80;21262;-88
2021/01/01 05:44:31;;;;;;;44.75;24.60;;;;;;;-4.09;86.78;95899.73;1770449;79;21257;-87
2021/01/01 05:47:09;;;;;;;44.33;23.57;;;;;;;-4.12;86.78;95900.14;1770664;80;21550;-87
2021/01/01 05:49:40;;;;;;;42.43;20.25;;;;;;;-4.13;86.87;95901.64;1770898;79;21301;-87
2021/01/01 05:52:16;;;;;;;;;;;;;;;-4.13;86.99;95902.94;1773238;80;21625;-87
2021/01/01 05:54:48;;;;;;;31.62;16.20;;;;;;;-4.08;87.43;95904.41;1770172;80;20214;-87
2021/01/01 05:57:18;;;;;;;34.98;19.90;;;;;;;-3.96;88.04;95902.78;1769775;81;21088;-87
2021/01/01 05:59:49;;;;;;;37.98;21.62;;;;;;;-3.77;88.65;95908.41;1752354;81;21318;-87
2021/01/01 06:02:16;;;;;;;40.92;21.02;;;;;;;-3.65;88.89;95909.36;1769646;80;21122;-87
2021/01/01 06:04:43;;;;;;;41.28;22.25;;;;;;;-3.55;89.01;95906.30;1769588;81;21487;-87
2021/01/01 06:07:12;;;;;;;44.40;23.05;;;;;;;-3.49;89.10;95908.58;1769688;80;21502;-87
2021/01/01 06:09:40;;;;;;;39.78;20.00;;;;;;;-3.44;89.03;95913.93;1769985;81;21144;-87
2021/01/01 06:12:11;;;;;;;41.28;22.93;;;;;;;-3.41;89.11;95912.21;1769634;81;21135;-87
2021/01/01 06:14:45;;;;;;;34.92;18.82;;;;;;;-3.39;89.16;95913.59;1769812;81;21452;-87
2021/01/01 06:17:19;;;;;;;38.10;20.60;;;;;;;-3.35;89.13;95916.08;1769729;81;21139;-87
2021/01/01 06:19:53;;;;;;;41.37;20.80;;;;;;;-3.32;89.11;95917.45;1770103;79;21127;-87
2021/01/01 06:22:30;;;;;;;29.00;17.25;;;;;;;-3.27;89.13;95916.82;1769757;81;21471;-87
2021/01/01 06:25:00;;;;;;;33.02;18.25;;;;;;;-3.24;89.14;95917.19;1769686;81;21159;-88
2021/01/01 06:27:31;;;;;;;36.00;18.45;;;;;;;-3.21;89.12;95914.71;1769749;81;21134;-87
2021/01/01 06:30:11;;;;;;;25.15;14.55;;;;;;;-3.14;89.24;95918.05;1769665;81;21502;-87
2021/01/01 06:32:39;;;;;;;33.35;16.77;;;;;;;-3.09;89.42;95916.94;1769796;81;21471;-88
2021/01/01 06:35:22;;;;;;;31.57;17.10;;;;;;;-3.01;89.44;95920.05;1769696;81;21170;-88
2021/01/01 06:37:54;;;;;;;34.98;17.85;;;;;;;-2.95;89.48;95924.92;1770006;80;21116;-87
2021/01/01 06:40:35;;;;;;;28.45;16.67;;;;;;;-2.93;89.41;95927.30;1769564;80;21127;-87
2021/01/01 06:43:08;;;;;;;24.90;15.63;;;;;;;-2.90;89.41;95930.26;1769705;81;21087;-87
2021/01/01 06:45:45;;;;;;;27.05;15.43;;;;;;;-2.88;89.34;95931.34;1769580;81;21151;-86
2021/01/01 06:48:24;;;;;;;43.58;25.12;;;;;;;-2.93;89.00;95929.39;1769865;81;21188;-87
2021/01/01 06:50:55;;;;;;;49.27;26.05;;;;;;;-3.15;88.47;95936.69;1770055;79;21483;-87
2021/01/01 06:53:30;;;;;;;35.80;22.80;;;;;;;-3.31;87.97;95942.37;1769680;81;21143;-87
2021/01/01 06:56:12;;;;;;;44.27;23.25;;;;;;;-3.39;87.73;95945.98;1770288;81;21179;-87
2021/01/01 06:58:41;;;;;;;47.23;27.58;;;;;;;-3.35;87.84;95950.27;1770555;80;21116;-87
2021/01/01 07:01:17;;;;;;;55.73;27.80;;;;;;;-3.38;87.63;95946.30;1770279;81;21138;-88
2021/01/01 07:03:45;;;;;;;53.13;28.15;;;;;;;-3.49;87.37;95950.83;1767901;81;21258;-88
2021/01/01 07:06:18;;;;;;;49.93;26.15;;;;;;;-3.68;86.89;95951.19;1770353;81;21121;-87
2021/01/01 07:08:46;;;;;;;52.73;30.32;;;;;;;-3.93;86.67;95958.05;1770458;80;21657;-88
2021/01/01 07:11:25;;;;;;;55.25;29.92;;;;;;;-4.04;86.74;95967.73;1770445;80;21633;-87
2021/01/01 07:13:59;;;;;;;52.10;26.93;;;;;;;-4.01;86.97;95956.97;1770356;81;21151;-88
2021/01/01 07:16:30;;;;;;;47.27;25.52;;;;;;;-3.97;87.04;95960.73;1770238;80;21277;-87
2021/01/01 07:18:57;;;;;;;50.20;28.65;;;;;;;-4.02;87.02;95957.97;1770849;79;21161;-88
2021/01/01 07:21:24;;;;;;;50.00;27.87;;;;;;;-4.06;86.99;95956.79;1770304;80;21151;-87
2021/01/01 07:23:51;;;;;;;56.02;27.85;;;;;;;-4.03;87.09;95955.88;1770485;80;21261;-89
2021/01/01 07:26:19;;;;;;;51.65;29.37;;;;;;;-3.97;87.11;95960.73;1769959;81;21131;-87
2021/01/01 07:28:49;;;;;;;41.05;24.82;;;;;;;-3.81;87.13;95948.63;1770392;80;21277;-87
2021/01/01 07:31:18;;;;;;;51.50;29.90;;;;;;;-3.22;87.52;95950.70;1770428;80;21277;-87
2021/01/01 07:33:47;;;;;;;55.15;30.72;;;;;;;-2.51;87.71;95942.14;1770545;80;21138;-87
2021/01/01 07:36:16;;;;;;;45.38;26.48;;;;;;;-1.96;87.53;95947.44;1770480;81;21300;-87
2021/01/01 07:38:47;;;;;;;45.33;26.52;;;;;;;-1.50;87.10;95946.13;1770585;81;21193;-87
2021/01/01 07:41:17;;;;;;;44.83;28.67;;;;;;;-1.15;86.62;95944.17;1770365;81;21299;-88
2021/01/01 07:43:44;;;;;;;48.65;28.38;;;;;;;-0.87;85.85;95949.58;1770573;80;21653;-87
2021/01/01 07:46:12;;;;;;;48.70;30.60;;;;;;;-0.75;85.26;95949.62;1770286;80;21510;-88
2021/01/01 07:48:39;;;;;;;50.00;30.40;;;;;;;-0.58;84.91;95949.76;1770673;81;21104;-87
2021/01/01 07:51:10;;;;;;;36.68;23.55;;;;;;;-0.40;84.61;95953.09;1770886;79;21143;-88
2021/01/01 07:53:38;;;;;;;43.55;27.95;;;;;;;-0.07;84.41;95942.11;1770724;80;21162;-88
2021/01/01 07:56:08;;;;;;;37.25;23.18;;;;;;;0.15;84.30;95953.27;1770294;80;21147;-88
2021/01/01 07:58:37;;;;;;;36.08;22.82;;;;;;;0.35;83.63;95953.69;1770442;80;21146;-88
2021/01/01 08:01:11;;;;;;;28.77;18.02;;;;;;;0.45;83.79;95951.29;1770293;80;21135;-88
2021/01/01 08:03:40;;;;;;;31.42;20.30;;;;;;;0.67;83.81;95955.87;1770392;80;21135;-88
2021/01/01 08:06:09;;;;;;;26.62;15.75;;;;;;;0.83;83.93;95957.23;1770620;80;21159;-88
2021/01/01 08:08:37;;;;;;;22.62;14.63;;;;;;;0.96;83.81;95954.06;1770618;80;21335;-88
2021/01/01 08:11:07;;;;;;;25.52;16.05;;;;;;;1.09;83.41;95956.39;1770405;80;21293;-89
2021/01/01 08:13:35;;;;;;;24.57;12.23;;;;;;;1.04;83.14;95959.72;1770515;80;21135;-88
2021/01/01 08:16:15;;;;;;;27.70;16.77;;;;;;;1.24;83.47;95966.31;1770334;80;21154;-88
2021/01/01 08:18:43;;;;;;;23.00;14.07;;;;;;;1.35;83.46;95961.55;1770543;80;21140;-88
2021/01/01 08:21:10;;;;;;;21.62;12.93;;;;;;;1.60;83.66;95964.58;1770785;79;21140;-88
2021/01/01 08:23:58;;;;;;;21.20;12.35;;;;;;;1.56;82.53;95966.61;1770397;80;21310;-89
2021/01/01 08:26:28;;;;;;;20.45;13.15;;;;;;;1.58;82.49;95960.12;1770486;80;21409;-89
2021/01/01 08:28:58;;;;;;;25.95;14.83;;;;;;;1.57;82.83;95972.11;1770494;81;21135;-88
2021/01/01 08:31:26;;;;;;;23.85;15.38;;;;;;;1.61;83.24;95977.92;1770396;80;21499;-88
2021/01/01 08:33:54;;;;;;;24.05;13.68;;;;;;;1.71;83.62;95969.47;1770398;80;21136;-88
2021/01/01 08:36:32;;;;;;;20.88;13.13;;;;;;;1.83;83.22;95977.20;1770431;80;21650;-89
2021/01/01 08:39:12;;;;;;;19.48;12.37;;;;;;;1.94;83.12;95971.89;1770358;81;21506;-89
2021/01/01 08:41:49;;;;;;;22.10;14.18;;;;;;;1.90;81.60;95973.92;1770645;80;21269;-88
2021/01/01 08:44:17;;;;;;;23.15;15.20;;;;;;;1.74;81.46;95975.52;1770596;80;21633;-88
2021/01/01 08:46:44;;;;;;;24.23;14.70;;;;;;;1.74;81.51;95985.45;1770286;81;21147;-89
2021/01/01 08:49:21;;;;;;;18.20;11.85;;;;;;;1.73;81.61;95979.95;1771108;79;21169;-88
2021/01/01 08:51:49;;;;;;;19.73;11.70;;;;;;;1.72;81.20;95986.72;1770354;80;21143;-88
2021/01/01 08:54:27;;;;;;;20.75;12.23;;;;;;;1.69;81.20;95981.95;1770392;80;21167;-89
2021/01/01 08:57:00;;;;;;;22.82;12.80;;;;;;;1.63;80.84;95986.31;1770301;81;21479;-89
2021/01/01 08:59:29;;;;;;;17.92;11.35;;;;;;;1.64;81.16;95987.10;1770762;80;21127;-89
2021/01/01 09:01:57;;;;;;;20.70;12.80;;;;;;;1.56;80.50;95979.16;1770657;81;21277;-88
2021/01/01 09:04:26;;;;;;;19.00;10.50;;;;;;;1.44;80.45;95986.27;1770540;80;21475;-89
2021/01/01 09:07:02;;;;;;;18.67;9.78;;;;;;;1.52;81.08;95987.68;1770730;81;21143;-89
2021/01/01 09:09:35;;;;;;;20.63;12.47;;;;;;;1.51;80.49;95988.20;1770734;81;21135;-89
2021/01/01 09:12:20;;;;;;;22.05;13.18;;;;;;;1.55;80.66;95983.28;1770477;80;21120;-89
2021/01/01 09:14:53;;;;;;;20.37;11.40;;;;;;;1.56;80.78;95983.08;1770605;80;21132;-89
2021/01/01 09:17:25;;;;;;;20.43;12.15;;;;;;;1.69;81.23;95987.17;1770575;81;21269;-88
2021/01/01 09:22:45;;;;;;;21.87;12.47;;;;;;;1.94;80.95;95975.81;1785175;79;23030;-87
2021/01/01 09:25:25;;;;;;;21.50;12.10;;;;;;;1.96;80.63;95983.41;1759506;81;21151;-87
2021/01/01 09:27:54;;;;;;;18.12;11.40;;;;;;;1.95;80.15;95980.52;1759222;81;21119;-88
2021/01/01 09:30:29;;;;;;;24.23;13.13;;;;;;;1.99;80.31;95981.66;1729683;83;21562;-88
2021/01/01 09:33:00;;;;;;;27.17;14.50;;;;;;;2.08;80.87;95980.20;1729230;83;21138;-89
2021/01/01 09:35:30;;;;;;;21.85;12.70;;;;;;;2.09;79.87;95972.62;1729074;83;21162;-89
2021/01/01 09:37:59;;;;;;;;;;;;;;;2.00;79.66;95975.39;1731922;81;21135;-88
2021/01/01 09:40:31;;;;;;;24.32;14.47;;;;;;;2.04;80.45;95979.89;1729263;83;20138;-88
2021/01/01 09:43:04;;;;;;;23.32;15.45;;;;;;;2.13;80.51;95971.14;1729462;83;21095;-88
2021/01/01 09:45:34;;;;;;;19.73;9.95;;;;;;;2.25;80.67;95977.55;1729661;83;21123;-89
2021/01/01 09:48:01;;;;;;;19.00;11.25;;;;;;;2.25;79.15;95971.84;1729533;82;21116;-88
2021/01/01 09:50:29;;;;;;;16.93;10.03;;;;;;;2.09;78.90;95972.62;1729440;83;21154;-88
2021/01/01 09:52:56;;;;;;;15.48;9.55;;;;;;;1.97;78.78;95962.78;1729280;83;21111;-88
2021/01/01 09:55:24;;;;;;;20.32;12.65;;;;;;;1.92;79.13;95979.70;1729445;83;21143;-88
2021/01/01 09:57:51;;;;;;;20.37;12.28;;;;;;;1.92;79.33;95958.79;1729594;83;21150;-89
2021/01/01 10:00:20;;;;;;;22.50;13.18;;;;;;;2.11;79.74;95977.09;1729310;83;21155;-89
2021/01/01 10:02:47;;;;;;;14.10;8.48;;;;;;;2.41;79.79;95978.58;1729390;83;21487;-88
2021/01/01 10:05:14;;;;;;;20.80;12.73;;;;;;;2.55;77.52;95974.05;1729338;83;21131;-89
2021/01/01 10:07:42;;;;;;;16.17;7.37;;;;;;;2.62;77.98;95980.41;1729275;83;21163;-89
2021/01/01 10:10:11;;;;;;;23.10;14.28;;;;;;;2.70;76.37;95979.99;1729454;82;21131;-89
2021/01/01 10:12:38;;;;;;;17.80;11.25;;;;;;;2.81;77.31;95979.58;1729314;83;21111;-89
2021/01/01 10:15:06;;;;;;;19.90;11.57;;;;;;;2.98;76.87;95978.48;1729337;83;21115;-89
2021/01/01 10:17:34;;;;;;;23.73;13.65;;;;;;;3.13;77.11;95989.64;1729303;83;21111;-89
2021/01/01 10:20:02;;;;;;;22.67;13.58;;;;;;;3.27;77.30;95987.43;1729460;81;21123;-88
2021/01/01 10:22:29;;;;;;;21.95;11.85;;;;;;;3.30;76.20;95990.86;1733502;83;21157;-88
2021/01/01 10:24:56;;;;;;;22.98;11.63;;;;;;;3.20;74.60;95985.51;1735152;83;21142;-89
2021/01/01 10:27:23;;;;;;;12.93;7.12;;;;;;;3.12;75.03;95977.59;1708095;83;21154;-89
2021/01/01 10:29:50;;;;;;;14.98;9.05;;;;;;;3.02;73.84;95995.02;1734744;81;21143;-89
2021/01/01 10:32:17;;;;;;;18.75;11.08;;;;;;;2.92;73.67;95979.45;1734823;83;21146;-89
2021/01/01 10:34:44;;;;;;;16.75;9.93;;;;;;;2.90;73.83;95978.91;1734266;83;21149;-89
2021/01/01 10:37:12;;;;;;;14.33;8.10;;;;;;;2.94;73.30;95967.42;1734332;83;21107;-88
2021/01/01 10:39:40;;;;;;;17.35;10.03;;;;;;;2.97;73.20;95975.60;1734437;81;21332;-88
2021/01/01 10:42:09;;;;;;;22.30;11.68;;;;;;;3.03;73.12;95966.48;1734348;83;21312;-89
2021/01/01 10:44:37;;;;;;;14.55;8.98;;;;;;;3.10;73.47;95961.86;1734622;83;21147;-89
2021/01/01 10:47:05;;;;;;;21.25;12.58;;;;;;;3.14;73.28;95966.34;1734196;83;21166;-89
2021/01/01 10:49:35;;;;;;;26.65;14.07;;;;;;;3.18;73.11;95962.70;1734313;81;21503;-89
2021/01/01 10:52:03;;;;;;;19.10;12.45;;;;;;;3.27;73.75;95964.64;1734149;83;21158;-89
2021/01/01 10:54:31;;;;;;;22.30;12.03;;;;;;;3.47;73.78;95957.48;1734282;82;21134;-89
2021/01/01 10:56:58;;;;;;;23.05;14.07;;;;;;;3.52;72.72;95955.45;1734260;82;21260;-89
2021/01/01 10:59:25;;;;;;;22.90;12.75;;;;;;;3.53;73.46;95953.09;1734352;81;21147;-89
2021/01/01 11:01:57;;;;;;;17.35;11.63;;;;;;;3.63;73.25;95946.60;1734226;82;21170;-90
2021/01/01 11:04:24;;;;;;;21.27;12.45;;;;;;;3.77;73.78;95938.59;1734184;82;21514;-89
2021/01/01 11:06:51;;;;;;;22.95;13.10;;;;;;;3.81;72.37;95941.52;1734403;82;21321;-89
2021/01/01 11:09:19;;;;;;;15.68;9.85;;;;;;;3.83;73.07;95942.05;1734259;81;21292;-89
2021/01/01 11:11:48;;;;;;;17.82;10.30;;;;;;;3.91;72.34;95925.84;1734310;83;21261;-90
2021/01/01 11:14:21;;;;;;;22.48;12.98;;;;;;;4.01;72.13;95927.22;1734196;82;21155;-90
2021/01/01 12:24:22;;;;;;;12.90;7.90;;;;;;;5.98;66.75;95925.91;1679498;84;21313;-90
2021/01/01 12:26:47;;;;;;;16.15;9.95;;;;;;;6.03;66.42;95924.57;1679138;85;21169;-90
2021/01/01 12:29:16;;;;;;;14.15;8.70;;;;;;;6.08;66.69;95927.21;1679430;84;21659;-90
2021/01/01 12:31:43;;;;;;;16.02;8.88;;;;;;;6.13;65.70;95937.72;1679629;85;21204;-91
2021/01/01 12:34:10;;;;;;;16.65;8.58;;;;;;;6.08;65.40;95936.42;1679435;84;21305;-90
2021/01/01 12:36:37;;;;;;;14.95;8.15;;;;;;;6.05;65.08;95940.88;1679503;85;21293;-90
2021/01/01 12:39:04;;;;;;;14.03;8.18;;;;;;;6.01;64.87;95941.16;1679375;84;21190;-91
2021/01/01 12:41:31;;;;;;;12.78;7.65;;;;;;;5.97;64.43;95944.06;1679432;84;21302;-91